Garden Spring, Nevada Weather observations

Data are for 10 minute period ending at time listed.
 Day   Time    Ave.   Ave.  Ave.  Vector   Max.   Stn.    Total    Solar   Ave.  
  of    of     Air    Rel.  Wind   Wind    Wind   Baro.  Precip.   Rad.    Soil  
Year   Day     Temp.  Hum.  Speed  Dir.    Gust   Pres.                    Temp. 
2016   (PST)    F      %     mph   deg.    mph     mb.     in.     W/m2     F    
--------------------------------------------------------------------------------- 
  40    0:00   50.8    32    5.4   332     18.8   863.6    0.00       0    43.4  
  40    1:00   51.7    31    7.8   349     17.6   863.3    0.00       0    42.9  
  40    2:00   51.4    32    9.6   347     20.2   863.0    0.00       0    42.4  
  40    3:00   51.2    31    6.1   316     17.3   862.7    0.00       0    41.9  
  40    4:00   48.7    34    4.3   297     10.5   862.6    0.00       0    41.3  
  40    5:00   48.9    32    4.9   314     11.8   862.5    0.00       0    41.0  
  40    6:00   47.6    32    3.9   285      7.6   862.5    0.00       0    40.5  
  40    7:00   45.5    36    4.7   267      7.7   862.5    0.00       0    40.0  
  40    8:00   43.7    38    3.9   266      6.5   862.5    0.00      10    39.6  
  40    9:00   47.6    35    3.4   270      6.5   862.8    0.00     154    39.5  
  40   10:00   56.4    26    3.1   142      6.9   863.1    0.00     343    39.8  
  40   11:00   59.1    24    3.4   132      8.9   863.2    0.00     507    39.6  
  40   12:00   62.0    21    5.9   179     13.6   862.9    0.00     623    40.4  
  40   13:00   65.2    18    6.3   102     15.0   862.3    0.00     682    42.2  
  40   14:00   65.0    18    7.4   102     14.1   861.5    0.00     676    44.1  
  40   15:00   65.0    18    7.5    95     13.8   861.0    0.00     604    46.0  
  40   16:00   65.0    16    7.5    65     14.7   860.7    0.00     474    47.5  
  40   17:00   64.8    16    5.9    62     12.9   860.6    0.00     302    48.5  
  40   18:00   59.6    23    3.2   302      6.0   860.7    0.00      69    48.6  
  40   19:00   49.6    33    4.7   282      8.3   860.7    0.00       2    48.3  
  40   20:00   48.7    31    5.2   285      8.7   860.9    0.00       0    48.0  
  40   21:00   46.5    31    5.3   274      8.2   860.7    0.00       0    47.1  
  40   22:00   45.2    31    5.0   271      7.6   860.6    0.00       0    46.1  
  40   23:00   43.6    32    5.0   268      7.0   860.8    0.00       0    45.1  

Return to Garden Spring, Nevada graphs page.


Western Regional Climate Center,wrcc@dri.edu